DWI209 KEWR-MDSD
Flight info
| Callsign | DWI209 |
|---|---|
| Flight time | N/A |
| Altitude | 37000 |
| Route | ELVAE DCT NECCK DCT DIXIE Y481 OHRYN/N0448F360 Y488 WEBBB/M078F360 Y488 HOBOH/M078F370 Y488 CHUBY/M078F360 Y488 SAUCR/M078F370 L453 LAMER/N0452F370 L453 RODRK/N0453F380 DCT POKEG UT17 KOBET |
| Aircraft | B738/M-SDE2E3FGHIRWXY/LB1 |
Departure
| Time | 2026-05-05 21:52 |
|---|---|
| Airport | Newark Liberty International Airport (KEWR) |
Arrival
| Time | N/A |
|---|---|
| Airport | Las Américas International Airport (MDSD) |
| Time | Latitude | Longitude | Altitude | Speed | Heading |
|---|---|---|---|---|---|
| 2026-05-05 21:16 | 40.68975 | -74.17635 | 21 ft | 0 kts | 97° |
| 2026-05-05 21:36 | 40.68976 | -74.17648 | 21 ft | 3 kts | 73° |
| 2026-05-05 21:36 | 40.68975 | -74.17656 | 22 ft | 3 kts | 3° |
| 2026-05-05 21:37 | 40.68959 | -74.17660 | 23 ft | 3 kts | 50° |
| 2026-05-05 21:37 | 40.68947 | -74.17680 | 21 ft | 3 kts | 52° |
| 2026-05-05 21:37 | 40.68936 | -74.17697 | 23 ft | 3 kts | 8° |
| 2026-05-05 21:37 | 40.68936 | -74.17700 | 23 ft | 3 kts | 317° |
| 2026-05-05 21:38 | 40.68921 | -74.17682 | 21 ft | 3 kts | 317° |
| 2026-05-05 21:38 | 40.68906 | -74.17664 | 22 ft | 3 kts | 317° |
| 2026-05-05 21:38 | 40.68894 | -74.17645 | 23 ft | 3 kts | 289° |
| 2026-05-05 21:38 | 40.68889 | -74.17620 | 23 ft | 3 kts | 288° |
| 2026-05-05 21:39 | 40.68886 | -74.17609 | 22 ft | 0 kts | 296° |
| 2026-05-05 21:44 | 40.68886 | -74.17610 | 22 ft | 0 kts | 296° |
| 2026-05-05 21:44 | 40.68894 | -74.17622 | 26 ft | 3 kts | 315° |
| 2026-05-05 21:44 | 40.68915 | -74.17617 | 21 ft | 4 kts | 54° |
| 2026-05-05 21:44 | 40.68892 | -74.17594 | 21 ft | 6 kts | 154° |
| 2026-05-05 21:45 | 40.68865 | -74.17552 | 22 ft | 6 kts | 121° |
| 2026-05-05 21:45 | 40.68846 | -74.17500 | 21 ft | 6 kts | 97° |
| 2026-05-05 21:45 | 40.68839 | -74.17447 | 21 ft | 6 kts | 126° |
| 2026-05-05 21:45 | 40.68842 | -74.17396 | 21 ft | 7 kts | 39° |
| 2026-05-05 21:46 | 40.68896 | -74.17364 | 21 ft | 10 kts | 24° |
| 2026-05-05 21:46 | 40.68961 | -74.17326 | 21 ft | 10 kts | 24° |
| 2026-05-05 21:46 | 40.69023 | -74.17288 | 21 ft | 10 kts | 30° |
| 2026-05-05 21:46 | 40.69082 | -74.17245 | 21 ft | 10 kts | 29° |
| 2026-05-05 21:47 | 40.69119 | -74.17215 | 22 ft | 9 kts | 32° |
| 2026-05-05 21:47 | 40.69177 | -74.17178 | 21 ft | 9 kts | 25° |
| 2026-05-05 21:47 | 40.69234 | -74.17144 | 21 ft | 9 kts | 25° |
| 2026-05-05 21:47 | 40.69290 | -74.17110 | 21 ft | 9 kts | 25° |
| 2026-05-05 21:48 | 40.69371 | -74.17061 | 21 ft | 20 kts | 27° |
| 2026-05-05 21:48 | 40.69533 | -74.16956 | 21 ft | 28 kts | 27° |
| 2026-05-05 21:48 | 40.69706 | -74.16846 | 21 ft | 27 kts | 25° |
| 2026-05-05 21:48 | 40.69875 | -74.16779 | 21 ft | 25 kts | 0° |
| 2026-05-05 21:49 | 40.70043 | -74.16746 | 21 ft | 24 kts | 6° |
| 2026-05-05 21:49 | 40.70185 | -74.16688 | 19 ft | 23 kts | 76° |
| 2026-05-05 21:49 | 40.70177 | -74.16485 | 20 ft | 22 kts | 97° |
| 2026-05-05 21:49 | 40.70143 | -74.16298 | 19 ft | 21 kts | 146° |
| 2026-05-05 21:50 | 40.70048 | -74.16350 | 19 ft | 9 kts | 206° |
| 2026-05-05 21:50 | 40.70044 | -74.16353 | 19 ft | 0 kts | 206° |
| 2026-05-05 21:50 | 40.70043 | -74.16353 | 19 ft | 0 kts | 206° |
| 2026-05-05 21:51 | 40.70041 | -74.16354 | 19 ft | 2 kts | 206° |
| 2026-05-05 21:51 | 40.70031 | -74.16361 | 18 ft | 0 kts | 206° |
| 2026-05-05 21:51 | 40.69953 | -74.16409 | 18 ft | 39 kts | 206° |
| 2026-05-05 21:52 | 40.68554 | -74.17277 | 467 ft | 145 kts | 210° |
| 2026-05-05 21:52 | 40.67596 | -74.17560 | 1498 ft | 147 kts | 187° |
| 2026-05-05 21:52 | 40.66465 | -74.17606 | 2090 ft | 174 kts | 187° |
| 2026-05-05 21:53 | 40.65312 | -74.17631 | 3192 ft | 170 kts | 193° |
| 2026-05-05 21:53 | 40.64180 | -74.18239 | 3571 ft | 189 kts | 226° |
| 2026-05-05 21:53 | 40.63310 | -74.19523 | 4431 ft | 183 kts | 227° |
| 2026-05-05 21:53 | 40.62521 | -74.20621 | 5772 ft | 154 kts | 227° |
| 2026-05-05 21:54 | 40.61733 | -74.21732 | 6200 ft | 181 kts | 227° |
| 2026-05-05 21:54 | 40.60815 | -74.22980 | 6677 ft | 190 kts | 225° |
| 2026-05-05 21:54 | 40.59847 | -74.24035 | 7662 ft | 178 kts | 216° |
| 2026-05-05 21:54 | 40.58696 | -74.24837 | 7894 ft | 197 kts | 212° |
| 2026-05-05 21:55 | 40.57418 | -74.25697 | 8063 ft | 215 kts | 212° |
| 2026-05-05 21:55 | 40.56040 | -74.26654 | 8236 ft | 232 kts | 211° |
| 2026-05-05 21:55 | 40.54408 | -74.27133 | 8624 ft | 252 kts | 186° |
| 2026-05-05 21:55 | 40.52605 | -74.26765 | 8931 ft | 277 kts | 170° |
| 2026-05-05 21:56 | 40.50757 | -74.25898 | 9360 ft | 293 kts | 165° |
| 2026-05-05 21:56 | 40.48840 | -74.24893 | 10056 ft | 299 kts | 165° |
| 2026-05-05 21:56 | 40.46842 | -74.23846 | 10352 ft | 320 kts | 165° |
| 2026-05-05 21:56 | 40.44691 | -74.22742 | 10583 ft | 342 kts | 165° |
| 2026-05-05 21:57 | 40.42438 | -74.21596 | 11121 ft | 351 kts | 165° |
| 2026-05-05 21:57 | 40.40148 | -74.20441 | 11842 ft | 354 kts | 165° |
| 2026-05-05 21:57 | 40.37836 | -74.19286 | 12626 ft | 357 kts | 165° |
| 2026-05-05 21:57 | 40.35498 | -74.18127 | 13352 ft | 361 kts | 165° |
| 2026-05-05 21:58 | 40.33155 | -74.16974 | 14018 ft | 364 kts | 166° |
| 2026-05-05 21:58 | 40.30712 | -74.16152 | 14654 ft | 361 kts | 177° |
| 2026-05-05 21:58 | 40.28223 | -74.15951 | 15323 ft | 358 kts | 186° |
| 2026-05-05 21:58 | 40.25722 | -74.16028 | 15965 ft | 361 kts | 187° |
| 2026-05-05 21:59 | 40.23199 | -74.16121 | 16578 ft | 365 kts | 186° |
| 2026-05-05 21:59 | 40.20647 | -74.16196 | 17249 ft | 368 kts | 186° |
| 2026-05-05 21:59 | 40.18070 | -74.16252 | 17864 ft | 371 kts | 185° |
| 2026-05-05 21:59 | 40.15474 | -74.16287 | 18445 ft | 376 kts | 182° |
| 2026-05-05 22:00 | 40.12870 | -74.15596 | 18926 ft | 392 kts | 161° |